sensor_id;sensor_type;location;lat;lon;timestamp;P1;durP1;ratioP1;P2;durP2;ratioP2
14247;SDS011;7208;49.826;6.004;2024-03-07T00:01:44;5.00;;;3.37;;
14247;SDS011;7208;49.826;6.004;2024-03-07T00:04:10;5.83;;;3.47;;
14247;SDS011;7208;49.826;6.004;2024-03-07T00:06:36;5.00;;;3.13;;
14247;SDS011;7208;49.826;6.004;2024-03-07T00:09:02;3.87;;;3.33;;
14247;SDS011;7208;49.826;6.004;2024-03-07T00:11:28;5.20;;;3.37;;
14247;SDS011;7208;49.826;6.004;2024-03-07T00:13:55;4.53;;;3.40;;
14247;SDS011;7208;49.826;6.004;2024-03-07T00:16:21;4.77;;;2.57;;
14247;SDS011;7208;49.826;6.004;2024-03-07T00:18:47;8.00;;;3.13;;
14247;SDS011;7208;49.826;6.004;2024-03-07T00:21:13;4.90;;;3.20;;
14247;SDS011;7208;49.826;6.004;2024-03-07T00:23:39;3.87;;;2.93;;
14247;SDS011;7208;49.826;6.004;2024-03-07T00:26:05;3.57;;;3.27;;
14247;SDS011;7208;49.826;6.004;2024-03-07T00:28:32;3.37;;;3.07;;
14247;SDS011;7208;49.826;6.004;2024-03-07T00:31:04;6.67;;;3.47;;
14247;SDS011;7208;49.826;6.004;2024-03-07T00:33:32;4.43;;;3.10;;
14247;SDS011;7208;49.826;6.004;2024-03-07T00:35:58;5.33;;;2.70;;
14247;SDS011;7208;49.826;6.004;2024-03-07T00:38:25;4.10;;;3.43;;
14247;SDS011;7208;49.826;6.004;2024-03-07T00:40:51;6.97;;;4.33;;
14247;SDS011;7208;49.826;6.004;2024-03-07T00:43:17;5.23;;;3.83;;
14247;SDS011;7208;49.826;6.004;2024-03-07T00:45:43;7.83;;;4.17;;
14247;SDS011;7208;49.826;6.004;2024-03-07T00:48:09;4.23;;;3.43;;
14247;SDS011;7208;49.826;6.004;2024-03-07T00:50:36;4.93;;;3.30;;
14247;SDS011;7208;49.826;6.004;2024-03-07T00:53:02;5.77;;;3.63;;
14247;SDS011;7208;49.826;6.004;2024-03-07T00:55:28;7.83;;;4.10;;
14247;SDS011;7208;49.826;6.004;2024-03-07T00:57:54;7.80;;;4.20;;
14247;SDS011;7208;49.826;6.004;2024-03-07T01:00:20;6.80;;;3.90;;
14247;SDS011;7208;49.826;6.004;2024-03-07T01:02:46;8.30;;;5.40;;
14247;SDS011;7208;49.826;6.004;2024-03-07T01:05:13;6.57;;;3.97;;
14247;SDS011;7208;49.826;6.004;2024-03-07T01:07:39;7.73;;;5.03;;
14247;SDS011;7208;49.826;6.004;2024-03-07T01:10:05;5.80;;;3.83;;
14247;SDS011;7208;49.826;6.004;2024-03-07T01:12:32;7.37;;;4.57;;
14247;SDS011;7208;49.826;6.004;2024-03-07T01:14:59;8.83;;;4.00;;
14247;SDS011;7208;49.826;6.004;2024-03-07T01:17:29;6.10;;;3.67;;
14247;SDS011;7208;49.826;6.004;2024-03-07T01:19:55;5.37;;;3.70;;
14247;SDS011;7208;49.826;6.004;2024-03-07T01:22:23;7.50;;;4.00;;
14247;SDS011;7208;49.826;6.004;2024-03-07T01:24:49;7.73;;;4.33;;
14247;SDS011;7208;49.826;6.004;2024-03-07T01:27:16;9.80;;;4.40;;
14247;SDS011;7208;49.826;6.004;2024-03-07T01:29:43;6.23;;;3.67;;
14247;SDS011;7208;49.826;6.004;2024-03-07T01:32:09;9.90;;;4.80;;
14247;SDS011;7208;49.826;6.004;2024-03-07T01:34:36;9.17;;;4.47;;
14247;SDS011;7208;49.826;6.004;2024-03-07T01:37:02;9.07;;;4.73;;
14247;SDS011;7208;49.826;6.004;2024-03-07T01:39:28;8.00;;;4.13;;
14247;SDS011;7208;49.826;6.004;2024-03-07T01:41:54;7.93;;;4.67;;
14247;SDS011;7208;49.826;6.004;2024-03-07T01:44:20;15.33;;;7.07;;
14247;SDS011;7208;49.826;6.004;2024-03-07T01:46:46;6.80;;;4.67;;
14247;SDS011;7208;49.826;6.004;2024-03-07T01:49:15;10.40;;;5.03;;
14247;SDS011;7208;49.826;6.004;2024-03-07T01:51:41;9.53;;;5.17;;
14247;SDS011;7208;49.826;6.004;2024-03-07T01:54:08;10.80;;;4.93;;
14247;SDS011;7208;49.826;6.004;2024-03-07T01:56:34;10.97;;;5.93;;
14247;SDS011;7208;49.826;6.004;2024-03-07T01:59:01;11.87;;;5.70;;
14247;SDS011;7208;49.826;6.004;2024-03-07T02:01:27;9.93;;;6.00;;
14247;SDS011;7208;49.826;6.004;2024-03-07T02:03:53;9.30;;;5.37;;
14247;SDS011;7208;49.826;6.004;2024-03-07T02:06:19;11.27;;;6.07;;
14247;SDS011;7208;49.826;6.004;2024-03-07T02:08:45;13.17;;;7.30;;
14247;SDS011;7208;49.826;6.004;2024-03-07T02:11:12;17.20;;;7.40;;
14247;SDS011;7208;49.826;6.004;2024-03-07T02:13:38;10.33;;;7.03;;
14247;SDS011;7208;49.826;6.004;2024-03-07T02:16:04;19.53;;;10.07;;
14247;SDS011;7208;49.826;6.004;2024-03-07T02:18:33;11.93;;;6.43;;
14247;SDS011;7208;49.826;6.004;2024-03-07T02:20:59;20.37;;;9.37;;
14247;SDS011;7208;49.826;6.004;2024-03-07T02:23:25;10.63;;;7.43;;
14247;SDS011;7208;49.826;6.004;2024-03-07T02:25:52;15.90;;;8.53;;
14247;SDS011;7208;49.826;6.004;2024-03-07T02:28:18;13.40;;;6.77;;
14247;SDS011;7208;49.826;6.004;2024-03-07T02:30:44;10.43;;;5.97;;
14247;SDS011;7208;49.826;6.004;2024-03-07T02:33:11;11.80;;;6.67;;
14247;SDS011;7208;49.826;6.004;2024-03-07T02:35:37;11.57;;;6.13;;
14247;SDS011;7208;49.826;6.004;2024-03-07T02:38:03;10.60;;;6.37;;
14247;SDS011;7208;49.826;6.004;2024-03-07T02:40:30;13.60;;;7.47;;
14247;SDS011;7208;49.826;6.004;2024-03-07T02:42:56;12.60;;;5.73;;
14247;SDS011;7208;49.826;6.004;2024-03-07T02:45:23;9.43;;;5.80;;
14247;SDS011;7208;49.826;6.004;2024-03-07T02:47:49;12.50;;;6.30;;
14247;SDS011;7208;49.826;6.004;2024-03-07T02:50:15;15.20;;;6.90;;
14247;SDS011;7208;49.826;6.004;2024-03-07T02:52:41;13.23;;;7.30;;
14247;SDS011;7208;49.826;6.004;2024-03-07T02:55:07;16.33;;;6.57;;
14247;SDS011;7208;49.826;6.004;2024-03-07T02:57:35;12.57;;;6.83;;
14247;SDS011;7208;49.826;6.004;2024-03-07T03:00:04;14.83;;;7.23;;
14247;SDS011;7208;49.826;6.004;2024-03-07T03:02:42;11.20;;;6.90;;
14247;SDS011;7208;49.826;6.004;2024-03-07T03:05:08;15.13;;;7.67;;
14247;SDS011;7208;49.826;6.004;2024-03-07T03:07:34;15.70;;;7.97;;
14247;SDS011;7208;49.826;6.004;2024-03-07T03:10:01;12.60;;;7.93;;
14247;SDS011;7208;49.826;6.004;2024-03-07T03:12:30;13.13;;;7.23;;
14247;SDS011;7208;49.826;6.004;2024-03-07T03:14:56;15.67;;;8.47;;
14247;SDS011;7208;49.826;6.004;2024-03-07T03:17:22;16.47;;;7.90;;
14247;SDS011;7208;49.826;6.004;2024-03-07T03:19:48;14.37;;;7.00;;
14247;SDS011;7208;49.826;6.004;2024-03-07T03:22:16;16.93;;;9.33;;
14247;SDS011;7208;49.826;6.004;2024-03-07T03:24:43;15.10;;;7.03;;
14247;SDS011;7208;49.826;6.004;2024-03-07T03:27:09;15.87;;;8.70;;
14247;SDS011;7208;49.826;6.004;2024-03-07T03:29:36;15.87;;;7.87;;
14247;SDS011;7208;49.826;6.004;2024-03-07T03:32:03;14.43;;;8.07;;
14247;SDS011;7208;49.826;6.004;2024-03-07T03:34:29;16.00;;;8.07;;
14247;SDS011;7208;49.826;6.004;2024-03-07T03:36:55;16.43;;;7.80;;
14247;SDS011;7208;49.826;6.004;2024-03-07T03:39:21;16.17;;;8.27;;
14247;SDS011;7208;49.826;6.004;2024-03-07T03:41:48;13.00;;;7.83;;
14247;SDS011;7208;49.826;6.004;2024-03-07T03:44:14;15.10;;;7.83;;
14247;SDS011;7208;49.826;6.004;2024-03-07T03:46:40;14.77;;;8.07;;
14247;SDS011;7208;49.826;6.004;2024-03-07T03:49:06;19.00;;;8.90;;
14247;SDS011;7208;49.826;6.004;2024-03-07T03:51:32;19.97;;;8.20;;
14247;SDS011;7208;49.826;6.004;2024-03-07T03:53:58;16.73;;;8.50;;
14247;SDS011;7208;49.826;6.004;2024-03-07T03:56:25;17.60;;;8.30;;
14247;SDS011;7208;49.826;6.004;2024-03-07T03:58:51;19.57;;;8.10;;
14247;SDS011;7208;49.826;6.004;2024-03-07T04:01:17;14.20;;;7.63;;
14247;SDS011;7208;49.826;6.004;2024-03-07T04:03:43;16.50;;;7.70;;
14247;SDS011;7208;49.826;6.004;2024-03-07T04:09:15;16.57;;;8.70;;
14247;SDS011;7208;49.826;6.004;2024-03-07T04:11:44;14.03;;;7.87;;
14247;SDS011;7208;49.826;6.004;2024-03-07T04:14:10;14.37;;;7.73;;
14247;SDS011;7208;49.826;6.004;2024-03-07T04:16:36;18.60;;;8.70;;
14247;SDS011;7208;49.826;6.004;2024-03-07T04:19:04;19.57;;;8.50;;
14247;SDS011;7208;49.826;6.004;2024-03-07T04:21:30;20.10;;;9.50;;
14247;SDS011;7208;49.826;6.004;2024-03-07T04:23:56;15.53;;;8.73;;
14247;SDS011;7208;49.826;6.004;2024-03-07T04:26:22;15.43;;;8.17;;
14247;SDS011;7208;49.826;6.004;2024-03-07T04:28:48;19.23;;;8.97;;
14247;SDS011;7208;49.826;6.004;2024-03-07T04:31:15;17.83;;;7.87;;
14247;SDS011;7208;49.826;6.004;2024-03-07T04:33:41;12.03;;;6.67;;
14247;SDS011;7208;49.826;6.004;2024-03-07T04:36:07;19.50;;;8.73;;
14247;SDS011;7208;49.826;6.004;2024-03-07T04:38:33;17.77;;;8.37;;
14247;SDS011;7208;49.826;6.004;2024-03-07T04:40:59;14.50;;;7.77;;
14247;SDS011;7208;49.826;6.004;2024-03-07T04:43:25;19.10;;;7.27;;
14247;SDS011;7208;49.826;6.004;2024-03-07T04:45:51;16.57;;;8.37;;
14247;SDS011;7208;49.826;6.004;2024-03-07T04:48:17;14.37;;;8.17;;
14247;SDS011;7208;49.826;6.004;2024-03-07T04:50:43;19.77;;;8.27;;
14247;SDS011;7208;49.826;6.004;2024-03-07T04:53:09;28.17;;;18.35;;
14247;SDS011;7208;49.826;6.004;2024-03-07T04:55:35;19.63;;;10.97;;
14247;SDS011;7208;49.826;6.004;2024-03-07T04:58:01;22.10;;;10.33;;
14247;SDS011;7208;49.826;6.004;2024-03-07T05:00:27;17.87;;;8.20;;
14247;SDS011;7208;49.826;6.004;2024-03-07T05:02:55;12.37;;;7.10;;
14247;SDS011;7208;49.826;6.004;2024-03-07T05:05:22;21.30;;;8.90;;
14247;SDS011;7208;49.826;6.004;2024-03-07T05:07:51;14.40;;;9.37;;
14247;SDS011;7208;49.826;6.004;2024-03-07T05:10:17;17.67;;;8.57;;
14247;SDS011;7208;49.826;6.004;2024-03-07T05:12:43;22.90;;;10.53;;
14247;SDS011;7208;49.826;6.004;2024-03-07T05:15:09;14.87;;;8.17;;
14247;SDS011;7208;49.826;6.004;2024-03-07T05:17:35;18.03;;;7.03;;
14247;SDS011;7208;49.826;6.004;2024-03-07T05:20:04;17.53;;;7.70;;
14247;SDS011;7208;49.826;6.004;2024-03-07T05:22:35;14.37;;;7.30;;
14247;SDS011;7208;49.826;6.004;2024-03-07T05:25:05;17.27;;;7.03;;
14247;SDS011;7208;49.826;6.004;2024-03-07T05:27:32;15.20;;;7.47;;
14247;SDS011;7208;49.826;6.004;2024-03-07T05:29:58;15.10;;;7.73;;
14247;SDS011;7208;49.826;6.004;2024-03-07T05:32:25;16.57;;;7.93;;
14247;SDS011;7208;49.826;6.004;2024-03-07T05:34:52;14.37;;;7.43;;
14247;SDS011;7208;49.826;6.004;2024-03-07T05:37:18;17.07;;;8.10;;
14247;SDS011;7208;49.826;6.004;2024-03-07T05:39:47;13.37;;;6.97;;
14247;SDS011;7208;49.826;6.004;2024-03-07T05:42:13;18.43;;;7.27;;
14247;SDS011;7208;49.826;6.004;2024-03-07T05:44:40;13.90;;;8.23;;
14247;SDS011;7208;49.826;6.004;2024-03-07T05:47:07;15.87;;;8.40;;
14247;SDS011;7208;49.826;6.004;2024-03-07T05:49:34;16.67;;;7.63;;
14247;SDS011;7208;49.826;6.004;2024-03-07T05:52:00;18.27;;;8.43;;
14247;SDS011;7208;49.826;6.004;2024-03-07T05:54:26;24.43;;;9.43;;
14247;SDS011;7208;49.826;6.004;2024-03-07T05:56:54;23.80;;;11.07;;
14247;SDS011;7208;49.826;6.004;2024-03-07T05:59:20;16.63;;;8.20;;
14247;SDS011;7208;49.826;6.004;2024-03-07T06:01:46;20.23;;;8.03;;
14247;SDS011;7208;49.826;6.004;2024-03-07T06:04:15;16.30;;;8.47;;
14247;SDS011;7208;49.826;6.004;2024-03-07T06:06:42;19.50;;;9.27;;
14247;SDS011;7208;49.826;6.004;2024-03-07T06:09:08;15.27;;;7.37;;
14247;SDS011;7208;49.826;6.004;2024-03-07T06:11:35;20.43;;;9.47;;
14247;SDS011;7208;49.826;6.004;2024-03-07T06:14:02;18.00;;;8.57;;
14247;SDS011;7208;49.826;6.004;2024-03-07T06:16:31;19.23;;;9.60;;
14247;SDS011;7208;49.826;6.004;2024-03-07T06:19:02;21.20;;;9.03;;
14247;SDS011;7208;49.826;6.004;2024-03-07T06:21:29;18.53;;;8.50;;
14247;SDS011;7208;49.826;6.004;2024-03-07T06:23:58;18.73;;;8.67;;
14247;SDS011;7208;49.826;6.004;2024-03-07T06:26:34;19.57;;;8.83;;
14247;SDS011;7208;49.826;6.004;2024-03-07T06:29:06;24.83;;;8.53;;
14247;SDS011;7208;49.826;6.004;2024-03-07T06:31:33;15.13;;;8.63;;
14247;SDS011;7208;49.826;6.004;2024-03-07T06:34:02;16.97;;;8.23;;
14247;SDS011;7208;49.826;6.004;2024-03-07T06:36:29;18.73;;;8.10;;
14247;SDS011;7208;49.826;6.004;2024-03-07T06:38:55;16.17;;;8.83;;
14247;SDS011;7208;49.826;6.004;2024-03-07T06:41:21;14.77;;;8.97;;
14247;SDS011;7208;49.826;6.004;2024-03-07T06:43:47;20.97;;;9.17;;
14247;SDS011;7208;49.826;6.004;2024-03-07T06:46:15;14.20;;;8.73;;
14247;SDS011;7208;49.826;6.004;2024-03-07T06:48:41;18.37;;;8.30;;
14247;SDS011;7208;49.826;6.004;2024-03-07T06:51:07;14.20;;;8.17;;
14247;SDS011;7208;49.826;6.004;2024-03-07T06:53:33;19.27;;;9.23;;
14247;SDS011;7208;49.826;6.004;2024-03-07T06:56:00;15.43;;;8.47;;
14247;SDS011;7208;49.826;6.004;2024-03-07T06:58:26;17.13;;;8.30;;
14247;SDS011;7208;49.826;6.004;2024-03-07T07:00:52;16.37;;;7.77;;
14247;SDS011;7208;49.826;6.004;2024-03-07T07:03:24;28.17;;;10.03;;
14247;SDS011;7208;49.826;6.004;2024-03-07T07:05:50;19.17;;;9.10;;
14247;SDS011;7208;49.826;6.004;2024-03-07T07:08:16;18.53;;;8.73;;
14247;SDS011;7208;49.826;6.004;2024-03-07T07:10:42;18.97;;;9.50;;
14247;SDS011;7208;49.826;6.004;2024-03-07T07:13:09;18.93;;;9.07;;
14247;SDS011;7208;49.826;6.004;2024-03-07T07:15:35;19.17;;;9.00;;
14247;SDS011;7208;49.826;6.004;2024-03-07T07:18:02;19.67;;;7.93;;
14247;SDS011;7208;49.826;6.004;2024-03-07T07:20:29;17.40;;;8.73;;
14247;SDS011;7208;49.826;6.004;2024-03-07T07:22:55;23.53;;;8.87;;
14247;SDS011;7208;49.826;6.004;2024-03-07T07:25:23;19.03;;;9.00;;
14247;SDS011;7208;49.826;6.004;2024-03-07T07:27:50;20.30;;;9.90;;
14247;SDS011;7208;49.826;6.004;2024-03-07T07:30:17;24.83;;;9.50;;
14247;SDS011;7208;49.826;6.004;2024-03-07T07:32:44;18.57;;;8.83;;
14247;SDS011;7208;49.826;6.004;2024-03-07T07:35:11;21.13;;;8.87;;
14247;SDS011;7208;49.826;6.004;2024-03-07T07:37:41;25.57;;;9.67;;
14247;SDS011;7208;49.826;6.004;2024-03-07T07:40:07;22.37;;;9.73;;
14247;SDS011;7208;49.826;6.004;2024-03-07T07:42:35;19.33;;;9.60;;
14247;SDS011;7208;49.826;6.004;2024-03-07T07:45:04;23.83;;;10.00;;
14247;SDS011;7208;49.826;6.004;2024-03-07T07:47:31;18.40;;;9.33;;
14247;SDS011;7208;49.826;6.004;2024-03-07T07:49:58;25.00;;;10.43;;
14247;SDS011;7208;49.826;6.004;2024-03-07T07:52:24;20.67;;;10.53;;
14247;SDS011;7208;49.826;6.004;2024-03-07T07:54:50;22.13;;;11.47;;
14247;SDS011;7208;49.826;6.004;2024-03-07T07:57:16;22.20;;;9.60;;
14247;SDS011;7208;49.826;6.004;2024-03-07T07:59:43;21.37;;;10.43;;
14247;SDS011;7208;49.826;6.004;2024-03-07T08:02:09;26.87;;;12.13;;
14247;SDS011;7208;49.826;6.004;2024-03-07T08:04:35;22.57;;;11.23;;
14247;SDS011;7208;49.826;6.004;2024-03-07T08:07:01;22.90;;;11.17;;
14247;SDS011;7208;49.826;6.004;2024-03-07T08:09:30;23.27;;;11.77;;
14247;SDS011;7208;49.826;6.004;2024-03-07T08:11:56;28.27;;;12.63;;
14247;SDS011;7208;49.826;6.004;2024-03-07T08:14:22;22.87;;;11.87;;
14247;SDS011;7208;49.826;6.004;2024-03-07T08:16:48;28.17;;;13.03;;
14247;SDS011;7208;49.826;6.004;2024-03-07T08:19:16;23.33;;;10.70;;
14247;SDS011;7208;49.826;6.004;2024-03-07T08:21:42;24.77;;;11.57;;
14247;SDS011;7208;49.826;6.004;2024-03-07T08:24:08;25.90;;;12.47;;
14247;SDS011;7208;49.826;6.004;2024-03-07T08:26:36;27.20;;;11.87;;
14247;SDS011;7208;49.826;6.004;2024-03-07T08:29:02;26.43;;;14.30;;
14247;SDS011;7208;49.826;6.004;2024-03-07T08:31:28;27.37;;;12.97;;
14247;SDS011;7208;49.826;6.004;2024-03-07T08:33:54;26.67;;;12.90;;
14247;SDS011;7208;49.826;6.004;2024-03-07T08:36:20;27.73;;;13.27;;
14247;SDS011;7208;49.826;6.004;2024-03-07T08:38:47;24.63;;;12.10;;
14247;SDS011;7208;49.826;6.004;2024-03-07T08:41:13;27.77;;;13.60;;
14247;SDS011;7208;49.826;6.004;2024-03-07T08:43:39;23.20;;;11.73;;
14247;SDS011;7208;49.826;6.004;2024-03-07T08:46:06;28.93;;;13.40;;
14247;SDS011;7208;49.826;6.004;2024-03-07T08:48:33;23.37;;;11.80;;
14247;SDS011;7208;49.826;6.004;2024-03-07T08:51:00;23.77;;;12.70;;
14247;SDS011;7208;49.826;6.004;2024-03-07T08:53:26;20.50;;;12.50;;
14247;SDS011;7208;49.826;6.004;2024-03-07T08:55:52;26.40;;;14.67;;
14247;SDS011;7208;49.826;6.004;2024-03-07T08:58:18;21.97;;;12.17;;
14247;SDS011;7208;49.826;6.004;2024-03-07T09:00:44;22.83;;;14.33;;
14247;SDS011;7208;49.826;6.004;2024-03-07T09:03:10;26.40;;;14.40;;
14247;SDS011;7208;49.826;6.004;2024-03-07T09:05:37;20.60;;;11.53;;
14247;SDS011;7208;49.826;6.004;2024-03-07T09:08:04;25.53;;;13.97;;
14247;SDS011;7208;49.826;6.004;2024-03-07T09:10:30;21.40;;;12.87;;
14247;SDS011;7208;49.826;6.004;2024-03-07T09:12:56;19.67;;;11.57;;
14247;SDS011;7208;49.826;6.004;2024-03-07T09:15:23;17.07;;;10.60;;
14247;SDS011;7208;49.826;6.004;2024-03-07T09:17:49;18.83;;;12.83;;
14247;SDS011;7208;49.826;6.004;2024-03-07T09:20:15;20.47;;;11.63;;
14247;SDS011;7208;49.826;6.004;2024-03-07T09:22:44;16.57;;;11.10;;
14247;SDS011;7208;49.826;6.004;2024-03-07T09:25:10;16.27;;;11.43;;
14247;SDS011;7208;49.826;6.004;2024-03-07T09:27:37;15.10;;;10.83;;
14247;SDS011;7208;49.826;6.004;2024-03-07T09:30:05;16.77;;;11.03;;
14247;SDS011;7208;49.826;6.004;2024-03-07T09:32:36;15.60;;;10.50;;
14247;SDS011;7208;49.826;6.004;2024-03-07T09:35:03;18.50;;;11.57;;
14247;SDS011;7208;49.826;6.004;2024-03-07T09:37:32;14.80;;;10.03;;
14247;SDS011;7208;49.826;6.004;2024-03-07T09:39:58;14.37;;;10.33;;
14247;SDS011;7208;49.826;6.004;2024-03-07T09:42:24;14.73;;;9.80;;
14247;SDS011;7208;49.826;6.004;2024-03-07T09:44:52;16.40;;;10.37;;
14247;SDS011;7208;49.826;6.004;2024-03-07T09:47:21;18.40;;;10.30;;
14247;SDS011;7208;49.826;6.004;2024-03-07T09:49:47;16.80;;;10.17;;
14247;SDS011;7208;49.826;6.004;2024-03-07T09:52:14;16.40;;;11.70;;
14247;SDS011;7208;49.826;6.004;2024-03-07T09:54:41;17.80;;;10.77;;
14247;SDS011;7208;49.826;6.004;2024-03-07T09:57:08;13.57;;;9.63;;
14247;SDS011;7208;49.826;6.004;2024-03-07T09:59:35;14.33;;;10.30;;
14247;SDS011;7208;49.826;6.004;2024-03-07T10:02:04;14.50;;;9.73;;
14247;SDS011;7208;49.826;6.004;2024-03-07T10:04:40;17.63;;;9.47;;
14247;SDS011;7208;49.826;6.004;2024-03-07T10:07:17;17.30;;;9.30;;
14247;SDS011;7208;49.826;6.004;2024-03-07T10:09:43;15.47;;;10.50;;
14247;SDS011;7208;49.826;6.004;2024-03-07T10:12:10;14.73;;;9.53;;
14247;SDS011;7208;49.826;6.004;2024-03-07T10:14:49;15.77;;;10.27;;
14247;SDS011;7208;49.826;6.004;2024-03-07T10:17:16;13.87;;;9.37;;
14247;SDS011;7208;49.826;6.004;2024-03-07T10:19:46;13.63;;;9.10;;
14247;SDS011;7208;49.826;6.004;2024-03-07T10:22:13;12.80;;;9.20;;
14247;SDS011;7208;49.826;6.004;2024-03-07T10:24:39;14.37;;;9.17;;
14247;SDS011;7208;49.826;6.004;2024-03-07T10:27:05;12.77;;;9.33;;
14247;SDS011;7208;49.826;6.004;2024-03-07T10:29:31;12.33;;;7.83;;
14247;SDS011;7208;49.826;6.004;2024-03-07T10:31:57;15.30;;;10.27;;
14247;SDS011;7208;49.826;6.004;2024-03-07T10:34:23;12.70;;;9.07;;
14247;SDS011;7208;49.826;6.004;2024-03-07T10:36:50;11.17;;;9.03;;
14247;SDS011;7208;49.826;6.004;2024-03-07T10:39:17;13.13;;;8.60;;
14247;SDS011;7208;49.826;6.004;2024-03-07T10:41:47;10.03;;;7.07;;
14247;SDS011;7208;49.826;6.004;2024-03-07T10:44:20;11.27;;;8.63;;
14247;SDS011;7208;49.826;6.004;2024-03-07T10:46:54;12.97;;;8.60;;
14247;SDS011;7208;49.826;6.004;2024-03-07T10:49:36;13.93;;;9.17;;
14247;SDS011;7208;49.826;6.004;2024-03-07T10:52:13;11.20;;;8.67;;
14247;SDS011;7208;49.826;6.004;2024-03-07T10:54:55;11.20;;;7.60;;
14247;SDS011;7208;49.826;6.004;2024-03-07T10:59:57;10.97;;;7.87;;
14247;SDS011;7208;49.826;6.004;2024-03-07T11:02:37;11.73;;;7.97;;
14247;SDS011;7208;49.826;6.004;2024-03-07T11:05:05;10.00;;;8.00;;
14247;SDS011;7208;49.826;6.004;2024-03-07T11:07:37;12.30;;;7.80;;
14247;SDS011;7208;49.826;6.004;2024-03-07T11:10:04;12.07;;;8.80;;
14247;SDS011;7208;49.826;6.004;2024-03-07T11:12:36;9.03;;;7.73;;
14247;SDS011;7208;49.826;6.004;2024-03-07T11:15:04;9.30;;;7.43;;
14247;SDS011;7208;49.826;6.004;2024-03-07T11:17:31;10.07;;;7.93;;
14247;SDS011;7208;49.826;6.004;2024-03-07T11:22:44;10.10;;;8.10;;
14247;SDS011;7208;49.826;6.004;2024-03-07T11:25:10;10.17;;;7.67;;
14247;SDS011;7208;49.826;6.004;2024-03-07T11:27:37;9.63;;;7.83;;
14247;SDS011;7208;49.826;6.004;2024-03-07T11:30:07;10.37;;;8.37;;
14247;SDS011;7208;49.826;6.004;2024-03-07T11:32:34;9.50;;;7.87;;
14247;SDS011;7208;49.826;6.004;2024-03-07T11:35:04;8.00;;;7.03;;
14247;SDS011;7208;49.826;6.004;2024-03-07T11:40:09;10.20;;;7.50;;
14247;SDS011;7208;49.826;6.004;2024-03-07T11:42:52;10.03;;;8.23;;
14247;SDS011;7208;49.826;6.004;2024-03-07T11:45:19;10.57;;;7.77;;
14247;SDS011;7208;49.826;6.004;2024-03-07T11:47:57;9.17;;;7.00;;
14247;SDS011;7208;49.826;6.004;2024-03-07T11:50:43;7.40;;;6.37;;
14247;SDS011;7208;49.826;6.004;2024-03-07T11:53:09;10.70;;;7.77;;
14247;SDS011;7208;49.826;6.004;2024-03-07T11:55:36;10.50;;;7.70;;
14247;SDS011;7208;49.826;6.004;2024-03-07T11:58:13;8.33;;;7.13;;
14247;SDS011;7208;49.826;6.004;2024-03-07T12:00:41;8.33;;;6.87;;
14247;SDS011;7208;49.826;6.004;2024-03-07T12:03:10;11.07;;;7.47;;
14247;SDS011;7208;49.826;6.004;2024-03-07T12:05:43;9.57;;;7.53;;
14247;SDS011;7208;49.826;6.004;2024-03-07T12:08:10;10.13;;;7.43;;
14247;SDS011;7208;49.826;6.004;2024-03-07T12:10:37;8.50;;;6.70;;
14247;SDS011;7208;49.826;6.004;2024-03-07T12:13:12;9.30;;;6.47;;
14247;SDS011;7208;49.826;6.004;2024-03-07T12:15:42;8.97;;;7.03;;
14247;SDS011;7208;49.826;6.004;2024-03-07T12:18:09;7.57;;;6.77;;
14247;SDS011;7208;49.826;6.004;2024-03-07T12:20:36;7.23;;;6.50;;
14247;SDS011;7208;49.826;6.004;2024-03-07T12:23:02;7.70;;;6.10;;
14247;SDS011;7208;49.826;6.004;2024-03-07T12:25:30;7.50;;;6.30;;
14247;SDS011;7208;49.826;6.004;2024-03-07T12:30:31;9.87;;;7.13;;
14247;SDS011;7208;49.826;6.004;2024-03-07T12:32:59;8.13;;;6.77;;
14247;SDS011;7208;49.826;6.004;2024-03-07T12:35:25;8.77;;;7.03;;
14247;SDS011;7208;49.826;6.004;2024-03-07T12:37:52;8.00;;;6.80;;
14247;SDS011;7208;49.826;6.004;2024-03-07T12:40:19;8.37;;;6.77;;
14247;SDS011;7208;49.826;6.004;2024-03-07T12:42:50;9.43;;;7.10;;
14247;SDS011;7208;49.826;6.004;2024-03-07T12:45:20;11.07;;;7.30;;
14247;SDS011;7208;49.826;6.004;2024-03-07T12:47:52;9.03;;;6.83;;
14247;SDS011;7208;49.826;6.004;2024-03-07T12:50:19;9.00;;;6.80;;
14247;SDS011;7208;49.826;6.004;2024-03-07T12:52:49;9.43;;;6.77;;
14247;SDS011;7208;49.826;6.004;2024-03-07T12:55:16;7.83;;;6.50;;
14247;SDS011;7208;49.826;6.004;2024-03-07T12:57:47;7.93;;;6.97;;
14247;SDS011;7208;49.826;6.004;2024-03-07T13:00:15;7.83;;;6.90;;
14247;SDS011;7208;49.826;6.004;2024-03-07T13:02:48;8.23;;;7.40;;
14247;SDS011;7208;49.826;6.004;2024-03-07T13:05:14;7.77;;;6.93;;
14247;SDS011;7208;49.826;6.004;2024-03-07T13:07:51;7.53;;;6.00;;
14247;SDS011;7208;49.826;6.004;2024-03-07T13:10:17;7.70;;;6.90;;
14247;SDS011;7208;49.826;6.004;2024-03-07T13:12:44;8.73;;;7.27;;
14247;SDS011;7208;49.826;6.004;2024-03-07T13:15:11;7.60;;;6.33;;
14247;SDS011;7208;49.826;6.004;2024-03-07T13:17:37;8.10;;;7.03;;
14247;SDS011;7208;49.826;6.004;2024-03-07T13:20:03;8.47;;;7.17;;
14247;SDS011;7208;49.826;6.004;2024-03-07T13:22:37;8.20;;;6.87;;
14247;SDS011;7208;49.826;6.004;2024-03-07T13:25:03;8.37;;;6.80;;
14247;SDS011;7208;49.826;6.004;2024-03-07T13:27:39;8.87;;;7.20;;
14247;SDS011;7208;49.826;6.004;2024-03-07T13:30:06;7.33;;;6.57;;
14247;SDS011;7208;49.826;6.004;2024-03-07T13:32:32;6.83;;;6.00;;
14247;SDS011;7208;49.826;6.004;2024-03-07T13:34:59;9.43;;;6.37;;
14247;SDS011;7208;49.826;6.004;2024-03-07T13:37:26;6.77;;;6.07;;
14247;SDS011;7208;49.826;6.004;2024-03-07T13:39:52;7.17;;;5.50;;
14247;SDS011;7208;49.826;6.004;2024-03-07T13:42:18;8.90;;;6.43;;
14247;SDS011;7208;49.826;6.004;2024-03-07T13:44:44;7.77;;;6.23;;
14247;SDS011;7208;49.826;6.004;2024-03-07T13:47:10;6.83;;;5.43;;
14247;SDS011;7208;49.826;6.004;2024-03-07T13:49:36;8.17;;;5.93;;
14247;SDS011;7208;49.826;6.004;2024-03-07T13:52:03;9.10;;;6.60;;
14247;SDS011;7208;49.826;6.004;2024-03-07T13:54:36;6.00;;;5.27;;
14247;SDS011;7208;49.826;6.004;2024-03-07T14:05:19;9.97;;;5.83;;
14247;SDS011;7208;49.826;6.004;2024-03-07T14:08:00;8.77;;;6.33;;
14247;SDS011;7208;49.826;6.004;2024-03-07T14:13:22;7.77;;;6.00;;
14247;SDS011;7208;49.826;6.004;2024-03-07T14:29:20;8.37;;;7.07;;
14247;SDS011;7208;49.826;6.004;2024-03-07T14:31:18;7.27;;;6.20;;
14247;SDS011;7208;49.826;6.004;2024-03-07T14:36:14;7.67;;;6.30;;
14247;SDS011;7208;49.826;6.004;2024-03-07T14:38:48;10.03;;;7.53;;
14247;SDS011;7208;49.826;6.004;2024-03-07T14:41:15;8.60;;;7.10;;
14247;SDS011;7208;49.826;6.004;2024-03-07T14:43:42;7.90;;;6.03;;
14247;SDS011;7208;49.826;6.004;2024-03-07T14:46:09;10.30;;;6.83;;
14247;SDS011;7208;49.826;6.004;2024-03-07T14:48:37;9.23;;;7.33;;
14247;SDS011;7208;49.826;6.004;2024-03-07T14:51:03;7.10;;;6.40;;
14247;SDS011;7208;49.826;6.004;2024-03-07T14:53:30;7.63;;;6.70;;
14247;SDS011;7208;49.826;6.004;2024-03-07T14:55:56;7.57;;;6.50;;
14247;SDS011;7208;49.826;6.004;2024-03-07T14:58:23;8.43;;;7.53;;
14247;SDS011;7208;49.826;6.004;2024-03-07T15:00:49;9.03;;;6.87;;
14247;SDS011;7208;49.826;6.004;2024-03-07T15:03:18;7.40;;;6.70;;
14247;SDS011;7208;49.826;6.004;2024-03-07T15:05:44;8.97;;;6.73;;
14247;SDS011;7208;49.826;6.004;2024-03-07T15:08:11;9.23;;;7.33;;
14247;SDS011;7208;49.826;6.004;2024-03-07T15:10:38;7.23;;;6.53;;
14247;SDS011;7208;49.826;6.004;2024-03-07T15:13:07;7.70;;;6.83;;
14247;SDS011;7208;49.826;6.004;2024-03-07T15:15:37;9.00;;;7.87;;
14247;SDS011;7208;49.826;6.004;2024-03-07T15:18:04;8.00;;;7.23;;
14247;SDS011;7208;49.826;6.004;2024-03-07T15:20:31;7.50;;;6.47;;
14247;SDS011;7208;49.826;6.004;2024-03-07T15:22:57;8.13;;;7.33;;
14247;SDS011;7208;49.826;6.004;2024-03-07T15:25:24;8.57;;;7.20;;
14247;SDS011;7208;49.826;6.004;2024-03-07T15:27:51;8.93;;;8.00;;
14247;SDS011;7208;49.826;6.004;2024-03-07T15:30:17;7.80;;;6.97;;
14247;SDS011;7208;49.826;6.004;2024-03-07T15:32:44;7.93;;;7.03;;